Portada
METAR-TAF:

METAR-TAF

Aeropuertos :

Dakar, Senegal

Aeropuerto Internacional de Dakar-Yoff/Léopold Sédar Senghor

latitud: 14-44N, longitud: 017-30W, altitud: 27 m

Observación

El informe se hizo hace 28 minutos, a las 04:00 UTC
Viento 12 kt del norte
Temperatura 21°C
Humedad 88%
Presión 1012 hPa
Visibilidad 10 km o más
sin nubes por debajo de 1500 m y sin presencia de cumulonimbus.

METAR: GOOY 280400Z 01012KT CAVOK 21/19 Q1012 NOSIG

Hora: 04:28 (04:28 UTC)

Pronóstico

El informe se hizo hace 4 horas y 58 minutos, a las 23:30 UTC
Pronóstico válido del 28 a las 00 UTC al 29 a las 06 UTC
Viento 15 kt del norte
Visibilidad 10 km o más
sin nubes por debajo de 1500 m y sin presencia de cumulonimbus.

TAF: GOOY 272330Z 2800/2906 35015KT CAVOK

Observaciones y pronósticos meteorológicos de más de 4000 aeropuertos (mensajes METAR y TAF).

Los puntos amarillos y rojos representan las estaciones disponibles.

Ponga el ratón en el punto deseado para ver el nombre de la estación.

Haga clic para ver las observaciones y los pronósticos meteorológicos.

Para cambiar el mapa : haga clic en los botones verdes con una cruz de color negro para hacer un zoom, en el botón verde con un guión para alejar o en las flechas verdes para mapas adyacentes.


METAR-TAF: